createdAt,value
2018-12-06T00:00:05.306Z,26.50
2018-12-06T00:02:31.631Z,26.53
2018-12-06T00:04:58.023Z,26.53
2018-12-06T00:07:24.367Z,26.60
2018-12-06T00:09:52.928Z,26.73
2018-12-06T00:12:19.283Z,26.67
2018-12-06T00:14:45.694Z,26.60
2018-12-06T00:17:12.145Z,26.47
2018-12-06T00:19:38.490Z,26.48
2018-12-06T00:22:04.817Z,26.60
2018-12-06T00:24:31.151Z,26.85
2018-12-06T00:26:57.546Z,26.67
2018-12-06T00:29:23.897Z,26.62
2018-12-06T00:31:50.309Z,26.53
2018-12-06T00:34:16.621Z,26.49
2018-12-06T00:36:43.032Z,26.52
2018-12-06T00:39:09.367Z,26.62
2018-12-06T00:41:35.698Z,26.82
2018-12-06T00:44:02.092Z,26.67
2018-12-06T00:46:28.442Z,26.54
2018-12-06T00:48:54.778Z,26.54
2018-12-06T00:51:21.181Z,26.46
2018-12-06T00:53:47.511Z,26.41
2018-12-06T00:56:13.841Z,26.69
2018-12-06T00:58:40.171Z,26.65
2018-12-06T01:01:06.514Z,26.57
2018-12-06T01:03:32.900Z,26.07
2018-12-06T01:05:59.284Z,25.33
2018-12-06T01:08:25.632Z,25.32
2018-12-06T01:10:52.077Z,25.81
2018-12-06T01:13:18.342Z,25.60
2018-12-06T01:15:44.741Z,25.89
2018-12-06T01:18:11.075Z,26.09
2018-12-06T01:20:37.413Z,25.80
2018-12-06T01:23:03.804Z,25.80
2018-12-06T01:25:30.127Z,26.08
2018-12-06T01:27:56.520Z,25.86
2018-12-06T01:30:22.854Z,25.70
2018-12-06T01:32:49.192Z,25.64
2018-12-06T01:35:15.580Z,25.96
2018-12-06T01:37:41.909Z,25.64
2018-12-06T01:40:08.247Z,25.83
2018-12-06T01:42:34.598Z,25.61
2018-12-06T01:45:00.940Z,25.46
2018-12-06T01:47:27.272Z,25.48
2018-12-06T01:49:53.735Z,25.59
2018-12-06T01:52:20.048Z,25.47
2018-12-06T01:54:46.367Z,25.51
2018-12-06T01:57:12.767Z,25.64
2018-12-06T01:59:39.145Z,25.10
2018-12-06T02:02:05.525Z,25.31
2018-12-06T02:04:31.770Z,25.16
2018-12-06T02:06:58.136Z,25.47
2018-12-06T02:09:24.606Z,25.37
2018-12-06T02:11:50.907Z,25.23
2018-12-06T02:14:17.223Z,24.77
2018-12-06T02:16:43.911Z,24.67
2018-12-06T02:19:09.888Z,24.47
2018-12-06T02:21:36.216Z,24.28
2018-12-06T02:24:03.743Z,24.28
2018-12-06T02:26:28.980Z,24.25
2018-12-06T02:28:55.227Z,24.29
2018-12-06T02:31:21.788Z,24.13
2018-12-06T02:33:48.136Z,24.46
2018-12-06T02:36:14.415Z,24.19
2018-12-06T02:38:40.809Z,24.15
2018-12-06T02:41:07.100Z,23.99
2018-12-06T02:43:33.482Z,24.09
2018-12-06T02:45:59.870Z,23.87
2018-12-06T02:48:26.299Z,23.84
2018-12-06T02:50:52.623Z,23.70
2018-12-06T02:53:18.939Z,23.71
2018-12-06T02:55:45.266Z,23.92
2018-12-06T02:58:11.635Z,24.00
2018-12-06T03:00:37.979Z,23.75
2018-12-06T03:03:04.299Z,23.77
2018-12-06T03:05:30.700Z,23.66
2018-12-06T03:07:57.059Z,23.64
2018-12-06T03:10:23.473Z,23.45
2018-12-06T03:12:49.847Z,23.44
2018-12-06T03:15:16.173Z,23.54
2018-12-06T03:17:42.566Z,23.40
2018-12-06T03:20:08.890Z,23.45
2018-12-06T03:22:35.270Z,23.57
2018-12-06T03:25:01.611Z,23.74
2018-12-06T03:27:28.011Z,23.54
2018-12-06T03:29:54.325Z,23.54
2018-12-06T03:32:20.728Z,23.42
2018-12-06T03:34:47.082Z,23.09
2018-12-06T03:37:13.430Z,23.17
2018-12-06T03:39:39.782Z,23.17
2018-12-06T03:42:06.177Z,23.18
2018-12-06T03:44:32.504Z,23.36
2018-12-06T03:46:58.903Z,23.35
2018-12-06T03:49:25.229Z,23.40
2018-12-06T03:51:51.571Z,23.34
2018-12-06T03:54:17.971Z,23.09
2018-12-06T03:56:44.428Z,23.18
2018-12-06T03:59:10.930Z,22.85
2018-12-06T04:01:37.154Z,22.79
2018-12-06T04:04:03.533Z,22.84
2018-12-06T04:06:29.931Z,22.71
2018-12-06T04:08:56.312Z,22.77
2018-12-06T04:11:22.673Z,22.51
2018-12-06T04:13:49.068Z,22.64
2018-12-06T04:16:15.411Z,22.57
2018-12-06T04:18:41.737Z,22.67
2018-12-06T04:21:08.117Z,22.68
2018-12-06T04:23:34.442Z,22.58
2018-12-06T04:26:00.833Z,22.58
2018-12-06T04:28:27.158Z,22.50
2018-12-06T04:30:53.486Z,22.51
2018-12-06T04:33:19.872Z,22.40
2018-12-06T04:35:46.219Z,22.42
2018-12-06T04:38:12.658Z,22.50
2018-12-06T04:40:39.076Z,22.47
2018-12-06T04:43:05.446Z,22.61
2018-12-06T04:45:31.828Z,22.48
2018-12-06T04:47:58.326Z,22.51
2018-12-06T04:50:24.691Z,22.18
2018-12-06T04:52:51.057Z,22.16
2018-12-06T04:55:17.375Z,21.93
2018-12-06T04:57:43.704Z,22.07
2018-12-06T05:00:10.034Z,21.96
2018-12-06T05:02:36.361Z,21.88
2018-12-06T05:05:02.781Z,21.94
2018-12-06T05:07:29.247Z,22.03
2018-12-06T05:09:55.591Z,22.40
2018-12-06T05:12:21.965Z,21.86
2018-12-06T05:14:48.352Z,21.89
2018-12-06T05:17:14.737Z,22.14
2018-12-06T05:19:41.158Z,22.04
2018-12-06T05:22:07.509Z,21.71
2018-12-06T05:24:33.867Z,21.73
2018-12-06T05:27:00.226Z,22.01
2018-12-06T05:29:26.552Z,21.84
2018-12-06T05:31:52.934Z,21.78
2018-12-06T05:34:19.221Z,21.76
2018-12-06T05:36:45.613Z,21.68
2018-12-06T05:39:11.950Z,21.40
2018-12-06T05:41:38.357Z,21.52
2018-12-06T05:44:04.764Z,21.40
2018-12-06T05:46:31.162Z,21.59
2018-12-06T05:48:57.544Z,21.58
2018-12-06T05:51:24.971Z,21.66
2018-12-06T05:53:50.213Z,22.44
